Time;durP1;ratioP1;P1;durP2;ratioP2;P2;SDS_P1;SDS_P2;PMS_P1;PMS_P2;Temp;Humidity;BMP_temperature;BMP_pressure;BME280_temperature;BME280_humidity;BME280_pressure;Samples;Min_cycle;Max_cycle;Signal;HPM_P1;HPM_P2
2020/12/04 00:01:25;;;;;;;2.41;2.21;;;;;;;18.71;47.16;97968.03;;;;-58
2020/12/04 00:04:25;;;;;;;2.38;2.18;;;;;;;18.68;47.09;97961.11;;;;-57
2020/12/04 00:07:25;;;;;;;2.23;2.03;;;;;;;18.68;47.15;97950.20;;;;-57
2020/12/04 00:10:25;;;;;;;2.36;2.16;;;;;;;18.64;47.17;97926.03;;;;-57
2020/12/04 00:13:25;;;;;;;2.13;1.99;;;;;;;18.63;47.28;97912.28;;;;-57
2020/12/04 00:16:25;;;;;;;2.41;2.21;;;;;;;18.61;47.17;97903.82;;;;-59
2020/12/04 00:19:25;;;;;;;2.34;2.14;;;;;;;18.59;47.20;97921.34;;;;-59
2020/12/04 00:22:25;;;;;;;2.30;2.10;;;;;;;18.57;47.19;97904.44;;;;-59
2020/12/04 00:25:25;;;;;;;2.23;2.03;;;;;;;18.56;47.26;97906.56;;;;-57
2020/12/04 00:28:25;;;;;;;2.37;2.17;;;;;;;18.54;47.20;97900.62;;;;-58
2020/12/04 00:31:25;;;;;;;2.40;2.20;;;;;;;18.54;47.16;97901.53;;;;-57
2020/12/04 00:34:25;;;;;;;3.10;2.20;;;;;;;18.52;47.16;97903.77;;;;-58
2020/12/04 00:37:25;;;;;;;2.20;2.00;;;;;;;18.51;47.16;97888.02;;;;-57
2020/12/04 00:40:25;;;;;;;2.08;1.97;;;;;;;18.49;47.19;97889.86;;;;-58
2020/12/04 00:43:25;;;;;;;2.31;2.11;;;;;;;18.48;47.29;97894.58;;;;-57
2020/12/04 00:46:25;;;;;;;2.22;2.02;;;;;;;18.46;47.12;97889.55;;;;-56
2020/12/04 00:49:25;;;;;;;2.26;2.07;;;;;;;18.44;47.22;97878.95;;;;-59
2020/12/04 00:52:25;;;;;;;2.29;2.09;;;;;;;18.43;47.23;97866.45;;;;-59
2020/12/04 00:55:25;;;;;;;2.26;2.06;;;;;;;18.42;47.22;97853.33;;;;-59
2020/12/04 00:58:25;;;;;;;2.26;2.06;;;;;;;18.41;47.14;97861.41;;;;-59
2020/12/04 01:01:25;;;;;;;2.29;2.09;;;;;;;18.39;47.25;97849.78;;;;-59
2020/12/04 01:04:25;;;;;;;2.29;2.10;;;;;;;18.38;47.28;97846.41;;;;-59
2020/12/04 01:07:25;;;;;;;2.43;2.23;;;;;;;18.37;47.28;97844.26;;;;-57
2020/12/04 01:10:25;;;;;;;2.15;1.95;;;;;;;18.35;47.29;97847.24;;;;-57
2020/12/04 01:13:25;;;;;;;2.34;2.14;;;;;;;18.34;47.24;97850.50;;;;-55
2020/12/04 01:16:25;;;;;;;2.19;1.99;;;;;;;18.33;47.30;97845.59;;;;-57
2020/12/04 01:19:25;;;;;;;2.19;2.00;;;;;;;18.31;47.26;97834.79;;;;-57
2020/12/04 01:22:25;;;;;;;2.37;2.17;;;;;;;18.30;47.32;97827.19;;;;-55
2020/12/04 01:25:25;;;;;;;2.15;1.95;;;;;;;18.29;47.27;97826.52;;;;-55
2020/12/04 01:28:25;;;;;;;2.16;1.98;;;;;;;18.27;47.49;97822.57;;;;-55
2020/12/04 01:31:25;;;;;;;2.30;2.10;;;;;;;18.26;47.29;97800.81;;;;-56
2020/12/04 01:34:25;;;;;;;2.30;2.10;;;;;;;18.25;47.31;97799.89;;;;-56
2020/12/04 01:37:25;;;;;;;2.19;1.99;;;;;;;18.24;47.30;97802.34;;;;-55
2020/12/04 01:40:25;;;;;;;2.20;2.00;;;;;;;18.22;47.27;97794.53;;;;-56
2020/12/04 01:43:25;;;;;;;2.27;2.07;;;;;;;18.21;47.25;97786.45;;;;-54
2020/12/04 01:46:25;;;;;;;2.19;1.99;;;;;;;18.20;47.40;97793.06;;;;-55
2020/12/04 01:49:25;;;;;;;2.11;1.93;;;;;;;18.18;47.33;97800.89;;;;-57
2020/12/04 01:52:25;;;;;;;2.13;1.93;;;;;;;18.16;47.36;97788.73;;;;-58
2020/12/04 01:55:25;;;;;;;2.24;2.04;;;;;;;18.16;47.41;97778.03;;;;-58
2020/12/04 01:58:25;;;;;;;2.29;2.09;;;;;;;18.15;47.32;97784.79;;;;-57
2020/12/04 02:01:25;;;;;;;2.19;2.00;;;;;;;18.14;47.36;97779.39;;;;-57
2020/12/04 02:04:25;;;;;;;2.15;1.95;;;;;;;18.13;47.38;97779.64;;;;-54
2020/12/04 02:07:25;;;;;;;2.35;2.15;;;;;;;18.12;47.35;97772.65;;;;-55
2020/12/04 02:10:25;;;;;;;2.37;2.17;;;;;;;18.10;47.39;97758.94;;;;-58
2020/12/04 02:13:25;;;;;;;2.27;2.07;;;;;;;18.10;47.33;97770.14;;;;-58
2020/12/04 02:16:25;;;;;;;2.25;2.05;;;;;;;18.08;47.33;97765.73;;;;-59
2020/12/04 02:19:25;;;;;;;2.27;2.03;;;;;;;18.08;47.40;97767.36;;;;-59
2020/12/04 02:22:25;;;;;;;2.31;2.10;;;;;;;18.07;47.43;97761.22;;;;-55
2020/12/04 02:25:25;;;;;;;2.39;2.16;;;;;;;18.05;47.41;97764.66;;;;-57
2020/12/04 02:28:25;;;;;;;2.27;2.07;;;;;;;18.04;47.47;97760.19;;;;-56
2020/12/04 02:31:25;;;;;;;2.06;1.86;;;;;;;18.03;47.43;97766.27;;;;-57
2020/12/04 02:34:25;;;;;;;1.95;1.80;;;;;;;18.02;47.39;97768.17;;;;-57
2020/12/04 02:37:28;;;;;;;2.19;1.99;;;;;;;18.01;47.44;97774.44;;;;-57
2020/12/04 02:40:25;;;;;;;2.07;1.91;;;;;;;18.00;47.48;97769.20;;;;-57
2020/12/04 02:43:26;;;;;;;2.11;1.91;;;;;;;18.00;47.30;97766.78;;;;-57
2020/12/04 02:46:25;;;;;;;1.89;1.79;;;;;;;17.98;47.45;97769.18;;;;-57
2020/12/04 02:49:25;;;;;;;2.16;1.97;;;;;;;17.96;47.47;97758.62;;;;-57
2020/12/04 02:52:25;;;;;;;2.27;2.07;;;;;;;17.96;47.50;97767.53;;;;-57
2020/12/04 02:55:25;;;;;;;1.95;1.85;;;;;;;17.97;47.43;97765.33;;;;-57
2020/12/04 02:58:26;;;;;;;2.21;2.01;;;;;;;17.95;47.51;97769.44;;;;-57
2020/12/04 03:01:25;;;;;;;2.10;1.90;;;;;;;17.94;47.54;97770.78;;;;-58
2020/12/04 03:04:25;;;;;;;2.16;1.96;;;;;;;17.92;47.43;97748.72;;;;-57
2020/12/04 03:07:25;;;;;;;2.23;2.03;;;;;;;17.92;47.47;97779.17;;;;-58
2020/12/04 03:10:25;;;;;;;2.21;2.01;;;;;;;17.90;47.46;97771.28;;;;-57
2020/12/04 03:13:25;;;;;;;2.09;1.93;;;;;;;17.89;47.45;97770.19;;;;-59
2020/12/04 03:16:25;;;;;;;2.02;1.90;;;;;;;17.89;47.54;97780.66;;;;-57
2020/12/04 03:19:25;;;;;;;2.13;1.92;;;;;;;17.87;47.47;97775.34;;;;-56
2020/12/04 03:22:25;;;;;;;2.11;1.93;;;;;;;17.88;47.60;97764.79;;;;-56
2020/12/04 03:25:25;;;;;;;2.16;1.96;;;;;;;17.86;47.47;97762.72;;;;-56
2020/12/04 03:28:25;;;;;;;1.93;1.80;;;;;;;17.86;47.48;97756.52;;;;-59
2020/12/04 03:31:25;;;;;;;2.11;1.96;;;;;;;17.85;47.39;97757.27;;;;-57
2020/12/04 03:34:25;;;;;;;2.11;2.01;;;;;;;17.84;47.52;97735.56;;;;-57
2020/12/04 03:37:25;;;;;;;2.22;2.02;;;;;;;17.83;47.45;97731.36;;;;-56
2020/12/04 03:40:25;;;;;;;2.04;1.88;;;;;;;17.82;47.50;97735.20;;;;-55
2020/12/04 03:43:25;;;;;;;2.00;1.90;;;;;;;17.82;47.45;97736.11;;;;-55
2020/12/04 03:46:25;;;;;;;2.23;2.03;;;;;;;17.80;47.54;97737.70;;;;-55
2020/12/04 03:49:25;;;;;;;1.96;1.86;;;;;;;17.80;47.51;97741.03;;;;-55
2020/12/04 03:52:25;;;;;;;2.01;1.85;;;;;;;17.79;47.59;97749.34;;;;-58
2020/12/04 03:55:25;;;;;;;2.15;1.95;;;;;;;17.78;47.56;97760.34;;;;-57
2020/12/04 03:58:25;;;;;;;2.39;1.91;;;;;;;17.76;47.57;97770.06;;;;-58
2020/12/04 04:01:25;;;;;;;2.13;1.93;;;;;;;17.76;47.50;97767.80;;;;-57
2020/12/04 04:04:25;;;;;;;2.14;1.94;;;;;;;17.76;47.50;97752.08;;;;-56
2020/12/04 04:07:25;;;;;;;2.12;1.92;;;;;;;17.76;47.53;97744.07;;;;-58
2020/12/04 04:10:25;;;;;;;2.11;1.91;;;;;;;17.75;47.57;97744.60;;;;-57
2020/12/04 04:13:25;;;;;;;2.29;2.09;;;;;;;17.74;47.50;97745.18;;;;-57
2020/12/04 04:16:25;;;;;;;2.05;1.84;;;;;;;17.73;47.46;97742.44;;;;-57
2020/12/04 04:19:25;;;;;;;2.06;1.91;;;;;;;17.73;47.55;97746.33;;;;-54
2020/12/04 04:22:25;;;;;;;1.90;1.80;;;;;;;17.72;47.56;97734.45;;;;-56
2020/12/04 04:25:25;;;;;;;1.91;1.81;;;;;;;17.72;47.48;97729.94;;;;-59
2020/12/04 04:28:25;;;;;;;1.99;1.83;;;;;;;17.71;47.57;97739.61;;;;-55
2020/12/04 04:31:25;;;;;;;2.05;1.87;;;;;;;17.70;47.54;97727.31;;;;-56
2020/12/04 04:34:25;;;;;;;2.02;1.84;;;;;;;17.69;47.52;97730.91;;;;-56
2020/12/04 04:37:25;;;;;;;2.11;1.93;;;;;;;17.69;47.62;97736.59;;;;-54
2020/12/04 04:40:25;;;;;;;2.68;1.89;;;;;;;17.67;47.58;97731.52;;;;-55
2020/12/04 04:43:25;;;;;;;2.09;1.99;;;;;;;17.68;47.58;97726.90;;;;-54
2020/12/04 04:46:25;;;;;;;2.11;1.91;;;;;;;17.66;47.59;97718.95;;;;-54
2020/12/04 04:49:28;;;;;;;1.87;1.77;;;;;;;17.66;47.62;97717.24;;;;-55
2020/12/04 04:52:25;;;;;;;2.19;2.01;;;;;;;17.65;47.65;97716.05;;;;-54
2020/12/04 04:55:25;;;;;;;1.97;1.87;;;;;;;17.64;47.57;97714.00;;;;-55
2020/12/04 04:58:25;;;;;;;1.80;1.70;;;;;;;17.63;47.65;97705.84;;;;-54
2020/12/04 05:01:25;;;;;;;1.90;1.80;;;;;;;17.62;47.58;97696.41;;;;-59
2020/12/04 05:04:25;;;;;;;2.01;1.82;;;;;;;17.62;47.65;97699.55;;;;-57
2020/12/04 05:07:25;;;;;;;1.90;1.80;;;;;;;17.62;47.65;97703.91;;;;-58
2020/12/04 05:10:25;;;;;;;2.00;1.89;;;;;;;17.61;47.57;97711.39;;;;-59
2020/12/04 05:13:25;;;;;;;1.86;1.76;;;;;;;17.60;47.66;97700.66;;;;-57
2020/12/04 05:16:25;;;;;;;1.79;1.69;;;;;;;17.59;47.67;97716.22;;;;-57
2020/12/04 05:19:25;;;;;;;2.03;1.85;;;;;;;17.58;47.65;97714.73;;;;-56
2020/12/04 05:22:25;;;;;;;2.10;1.90;;;;;;;17.59;47.58;97720.13;;;;-57
2020/12/04 05:25:25;;;;;;;1.89;1.79;;;;;;;17.56;47.69;97721.25;;;;-57
2020/12/04 05:28:25;;;;;;;2.10;1.90;;;;;;;17.56;47.63;97716.41;;;;-56
2020/12/04 05:31:25;;;;;;;1.80;1.70;;;;;;;17.55;47.66;97722.88;;;;-56
2020/12/04 05:34:25;;;;;;;1.83;1.71;;;;;;;17.55;47.69;97716.25;;;;-57
2020/12/04 05:37:25;;;;;;;2.13;1.93;;;;;;;17.54;47.68;97726.94;;;;-54
2020/12/04 05:40:25;;;;;;;2.09;1.89;;;;;;;17.53;47.68;97733.01;;;;-54
2020/12/04 05:43:25;;;;;;;2.01;1.83;;;;;;;17.53;47.65;97740.13;;;;-56
2020/12/04 05:46:25;;;;;;;2.02;1.89;;;;;;;17.52;47.67;97733.19;;;;-54
2020/12/04 05:49:25;;;;;;;1.94;1.84;;;;;;;17.52;47.69;97732.15;;;;-54
2020/12/04 05:52:25;;;;;;;2.21;2.01;;;;;;;17.51;47.64;97723.42;;;;-58
2020/12/04 05:55:25;;;;;;;1.95;1.85;;;;;;;17.51;47.67;97731.03;;;;-57
2020/12/04 05:58:25;;;;;;;1.88;1.78;;;;;;;17.50;47.67;97730.02;;;;-58
2020/12/04 06:01:25;;;;;;;1.92;1.79;;;;;;;17.50;47.65;97722.17;;;;-57
2020/12/04 06:04:25;;;;;;;2.04;1.83;;;;;;;17.48;47.74;97728.94;;;;-56
2020/12/04 06:07:27;;;;;;;2.05;1.90;;;;;;;17.48;47.66;97719.88;;;;-57
2020/12/04 06:10:25;;;;;;;2.01;1.87;;;;;;;17.48;47.66;97722.23;;;;-58
2020/12/04 06:13:25;;;;;;;1.91;1.81;;;;;;;17.47;47.63;97716.84;;;;-57
2020/12/04 06:16:25;;;;;;;1.85;1.75;;;;;;;17.48;47.67;97715.92;;;;-57
2020/12/04 06:19:25;;;;;;;1.87;1.76;;;;;;;17.48;47.66;97715.25;;;;-57
2020/12/04 06:22:25;;;;;;;1.81;1.71;;;;;;;17.49;47.76;97707.87;;;;-58
2020/12/04 06:25:26;;;;;;;2.14;1.95;;;;;;;17.51;47.72;97711.83;;;;-56
2020/12/04 06:28:25;;;;;;;1.85;1.75;;;;;;;17.53;47.68;97700.14;;;;-57
2020/12/04 06:31:25;;;;;;;1.86;1.73;;;;;;;17.55;47.66;97700.14;;;;-58
2020/12/04 06:34:25;;;;;;;1.87;1.77;;;;;;;17.59;47.65;97700.20;;;;-56
2020/12/04 06:37:25;;;;;;;1.69;1.59;;;;;;;17.60;47.59;97683.84;;;;-59
2020/12/04 06:40:25;;;;;;;1.79;1.69;;;;;;;17.62;47.87;97686.76;;;;-59
2020/12/04 06:43:25;;;;;;;2.03;1.81;;;;;;;17.64;47.87;97695.12;;;;-56
2020/12/04 06:46:25;;;;;;;1.72;1.61;;;;;;;17.67;47.95;97694.59;;;;-57
2020/12/04 06:49:37;;;;;;;1.79;1.69;;;;;;;17.71;47.99;97695.00;;;;-58
2020/12/04 06:52:25;;;;;;;1.61;1.51;;;;;;;17.74;48.00;97704.03;;;;-57
2020/12/04 06:55:25;;;;;;;1.61;1.51;;;;;;;17.77;47.92;97700.85;;;;-55
2020/12/04 06:58:25;;;;;;;1.65;1.55;;;;;;;17.81;47.99;97703.44;;;;-54
2020/12/04 07:01:25;;;;;;;1.60;1.50;;;;;;;17.86;48.01;97710.25;;;;-59
2020/12/04 07:04:25;;;;;;;1.59;1.49;;;;;;;17.88;48.04;97709.03;;;;-58
2020/12/04 07:07:25;;;;;;;1.61;1.51;;;;;;;17.92;48.05;97716.29;;;;-58
2020/12/04 07:10:25;;;;;;;1.77;1.67;;;;;;;17.96;48.09;97715.93;;;;-58
2020/12/04 07:13:25;;;;;;;1.69;1.59;;;;;;;17.97;48.13;97717.60;;;;-58
2020/12/04 07:16:25;;;;;;;1.70;1.60;;;;;;;18.01;48.08;97724.30;;;;-58
2020/12/04 07:19:25;;;;;;;1.61;1.51;;;;;;;18.03;48.11;97729.98;;;;-55
2020/12/04 07:22:25;;;;;;;1.85;1.73;;;;;;;18.05;48.08;97734.84;;;;-54
2020/12/04 07:25:25;;;;;;;1.70;1.60;;;;;;;18.06;48.03;97726.33;;;;-57
2020/12/04 07:28:25;;;;;;;1.88;1.75;;;;;;;18.08;48.03;97726.20;;;;-57
2020/12/04 07:31:25;;;;;;;1.69;1.59;;;;;;;18.08;48.00;97718.30;;;;-59
2020/12/04 07:34:25;;;;;;;1.68;1.58;;;;;;;18.09;48.02;97710.17;;;;-56
2020/12/04 07:37:25;;;;;;;1.70;1.60;;;;;;;18.10;47.94;97709.90;;;;-55
2020/12/04 07:40:25;;;;;;;1.70;1.60;;;;;;;18.11;47.99;97708.84;;;;-57
2020/12/04 07:43:26;;;;;;;1.60;1.50;;;;;;;18.11;47.95;97716.78;;;;-55
2020/12/04 07:46:25;;;;;;;1.66;1.56;;;;;;;18.12;47.94;97709.47;;;;-57
2020/12/04 07:49:26;;;;;;;1.60;1.50;;;;;;;18.12;47.92;97713.27;;;;-57
2020/12/04 07:52:25;;;;;;;1.67;1.57;;;;;;;18.11;47.95;97705.73;;;;-57
2020/12/04 07:55:25;;;;;;;1.65;1.55;;;;;;;18.11;47.93;97702.65;;;;-56
2020/12/04 07:58:25;;;;;;;1.70;1.60;;;;;;;18.11;47.93;97703.37;;;;-57
2020/12/04 08:01:25;;;;;;;1.63;1.53;;;;;;;18.11;47.94;97712.30;;;;-55
2020/12/04 08:04:25;;;;;;;1.75;1.65;;;;;;;18.11;47.92;97710.91;;;;-56
2020/12/04 08:07:25;;;;;;;1.70;1.60;;;;;;;18.11;47.86;97713.92;;;;-56
2020/12/04 08:10:25;;;;;;;1.81;1.71;;;;;;;18.10;47.90;97709.83;;;;-57
2020/12/04 08:13:27;;;;;;;1.80;1.70;;;;;;;18.10;47.92;97705.97;;;;-59
2020/12/04 08:16:25;;;;;;;1.60;1.50;;;;;;;18.09;47.97;97706.19;;;;-57
2020/12/04 08:19:25;;;;;;;1.60;1.50;;;;;;;18.09;47.80;97704.41;;;;-54
2020/12/04 08:22:25;;;;;;;1.69;1.59;;;;;;;18.10;47.87;97716.50;;;;-58
2020/12/04 08:25:25;;;;;;;1.68;1.58;;;;;;;18.09;47.80;97724.52;;;;-59
2020/12/04 08:28:25;;;;;;;1.66;1.56;;;;;;;18.08;47.78;97716.13;;;;-55
2020/12/04 08:31:25;;;;;;;1.60;1.50;;;;;;;18.08;47.70;97719.30;;;;-58
2020/12/04 08:34:25;;;;;;;1.60;1.50;;;;;;;18.08;47.80;97711.77;;;;-59
2020/12/04 08:37:25;;;;;;;1.80;1.70;;;;;;;18.07;47.78;97707.00;;;;-59
2020/12/04 08:40:25;;;;;;;1.69;1.59;;;;;;;18.06;47.80;97701.21;;;;-54
2020/12/04 08:43:25;;;;;;;1.80;1.70;;;;;;;18.06;47.74;97700.47;;;;-59
2020/12/04 08:46:26;;;;;;;1.72;1.62;;;;;;;18.06;47.80;97705.52;;;;-59
2020/12/04 08:49:25;;;;;;;3.19;1.59;;;;;;;18.05;47.95;97710.31;;;;-54
2020/12/04 08:52:25;;;;;;;4.30;1.79;;;;;;;18.07;48.22;97705.87;;;;-52
2020/12/04 08:55:25;;;;;;;1.70;1.60;;;;;;;18.09;48.57;97702.78;;;;-57
2020/12/04 08:58:25;;;;;;;3.14;1.71;;;;;;;18.13;48.55;97704.46;;;;-56
2020/12/04 09:01:25;;;;;;;2.90;1.72;;;;;;;18.16;48.52;97698.44;;;;-59
2020/12/04 09:04:25;;;;;;;4.19;1.85;;;;;;;18.20;48.71;97711.86;;;;-56
2020/12/04 09:07:25;;;;;;;2.68;1.74;;;;;;;18.24;48.79;97714.97;;;;-50
2020/12/04 09:10:25;;;;;;;2.44;1.68;;;;;;;18.28;48.83;97723.98;;;;-51
2020/12/04 09:13:25;;;;;;;2.59;1.70;;;;;;;18.33;48.92;97717.20;;;;-57
2020/12/04 09:16:25;;;;;;;6.37;1.75;;;;;;;18.36;48.46;97719.50;;;;-56
2020/12/04 09:19:25;;;;;;;1.70;1.60;;;;;;;18.39;48.34;97722.84;;;;-57
2020/12/04 09:22:25;;;;;;;2.64;1.60;;;;;;;18.41;48.28;97716.75;;;;-58
2020/12/04 09:25:25;;;;;;;2.09;1.59;;;;;;;18.45;48.27;97722.37;;;;-58
2020/12/04 09:28:25;;;;;;;1.75;1.63;;;;;;;18.47;48.20;97723.22;;;;-58
2020/12/04 09:31:25;;;;;;;3.25;1.61;;;;;;;18.54;48.47;97742.20;;;;-54
2020/12/04 09:34:25;;;;;;;3.45;1.68;;;;;;;18.55;48.43;97737.87;;;;-51
2020/12/04 09:37:25;;;;;;;3.21;2.15;;;;;;;18.55;47.63;97740.20;;;;-52
2020/12/04 09:40:25;;;;;;;3.40;2.16;;;;;;;18.56;47.68;97742.29;;;;-49
2020/12/04 09:43:25;;;;;;;4.19;2.20;;;;;;;18.57;47.40;97745.91;;;;-48
2020/12/04 09:46:25;;;;;;;2.89;2.29;;;;;;;18.59;47.47;97748.98;;;;-59
2020/12/04 09:49:25;;;;;;;4.51;2.24;;;;;;;18.62;47.75;97764.21;;;;-60
2020/12/04 09:52:25;;;;;;;2.65;2.40;;;;;;;18.60;46.51;97766.23;;;;-52
2020/12/04 09:55:26;;;;;;;3.99;3.57;;;;;;;18.57;45.21;97769.82;;;;-51
2020/12/04 09:58:25;;;;;;;6.25;5.06;;;;;;;18.56;44.07;97768.82;;;;-52
2020/12/04 10:01:25;;;;;;;6.46;5.63;;;;;;;18.53;43.58;97763.72;;;;-57
2020/12/04 10:04:25;;;;;;;6.92;5.19;;;;;;;18.57;43.12;97745.48;;;;-54
2020/12/04 10:07:25;;;;;;;7.20;4.33;;;;;;;18.66;44.86;97755.11;;;;-49
2020/12/04 10:10:25;;;;;;;5.68;3.66;;;;;;;18.72;45.50;97743.04;;;;-52
2020/12/04 10:13:25;;;;;;;6.47;3.95;;;;;;;18.75;45.60;97741.80;;;;-56
2020/12/04 10:16:25;;;;;;;4.31;3.49;;;;;;;18.77;45.50;97738.89;;;;-56
2020/12/04 10:19:25;;;;;;;4.31;3.18;;;;;;;18.79;45.48;97771.32;;;;-55
2020/12/04 10:22:27;;;;;;;3.65;3.20;;;;;;;18.82;45.36;97752.06;;;;-49
2020/12/04 10:25:25;;;;;;;4.10;3.04;;;;;;;18.83;45.05;97741.62;;;;-53
2020/12/04 10:28:28;;;;;;;4.44;2.97;;;;;;;18.85;45.03;97733.40;;;;-54
2020/12/04 10:31:25;;;;;;;3.33;3.01;;;;;;;18.87;45.05;97764.62;;;;-51
2020/12/04 10:34:26;;;;;;;3.33;2.73;;;;;;;18.88;45.09;97754.13;;;;-51
2020/12/04 10:37:25;;;;;;;3.99;2.75;;;;;;;18.91;45.26;97744.96;;;;-56
2020/12/04 10:40:25;;;;;;;4.01;2.88;;;;;;;18.93;45.58;97736.84;;;;-50
2020/12/04 10:43:25;;;;;;;3.27;2.67;;;;;;;18.94;45.10;97751.40;;;;-52
2020/12/04 10:46:25;;;;;;;5.65;2.60;;;;;;;18.96;45.29;97769.77;;;;-52
2020/12/04 10:49:25;;;;;;;4.32;2.51;;;;;;;18.94;45.69;97770.78;;;;-54
2020/12/04 10:52:25;;;;;;;4.27;2.53;;;;;;;18.98;45.87;97751.75;;;;-59
2020/12/04 10:55:25;;;;;;;2.77;2.49;;;;;;;19.02;45.88;97751.34;;;;-56
2020/12/04 10:58:25;;;;;;;5.31;2.63;;;;;;;19.05;46.17;97743.78;;;;-51
2020/12/04 11:01:28;;;;;;;2.92;2.52;;;;;;;19.11;46.52;97731.06;;;;-48
2020/12/04 11:08:25;;;;;;;6.31;2.60;;;;;;;19.18;46.16;97755.52;;;;-53
2020/12/04 11:11:25;;;;;;;3.81;2.55;;;;;;;19.21;46.48;97772.70;;;;-59
2020/12/04 11:14:25;;;;;;;2.71;2.27;;;;;;;19.23;46.43;97755.00;;;;-51
2020/12/04 11:17:25;;;;;;;7.77;2.45;;;;;;;19.24;46.41;97744.69;;;;-61
2020/12/04 11:20:25;;;;;;;5.06;2.53;;;;;;;19.24;46.46;97751.41;;;;-59
2020/12/04 11:23:25;;;;;;;3.21;2.33;;;;;;;19.25;46.48;97791.20;;;;-52
2020/12/04 11:26:25;;;;;;;5.00;2.31;;;;;;;19.27;46.45;97796.59;;;;-60
2020/12/04 11:29:26;;;;;;;4.20;2.17;;;;;;;19.27;46.39;97780.00;;;;-61
2020/12/04 11:32:25;;;;;;;4.16;2.25;;;;;;;19.27;46.42;97772.78;;;;-52
2020/12/04 11:35:25;;;;;;;3.85;2.35;;;;;;;19.28;46.55;97762.28;;;;-61
2020/12/04 11:38:25;;;;;;;2.89;2.19;;;;;;;19.29;46.48;97750.88;;;;-52
2020/12/04 11:41:25;;;;;;;2.42;2.03;;;;;;;19.30;46.50;97742.16;;;;-51
2020/12/04 11:44:25;;;;;;;2.51;2.31;;;;;;;19.32;46.50;97730.16;;;;-51
2020/12/04 11:47:25;;;;;;;2.74;2.30;;;;;;;19.33;46.51;97749.11;;;;-52
2020/12/04 11:50:25;;;;;;;2.76;2.22;;;;;;;19.34;46.60;97743.56;;;;-61
2020/12/04 11:53:25;;;;;;;2.49;2.07;;;;;;;19.35;46.61;97747.97;;;;-50
2020/12/04 11:56:25;;;;;;;2.45;2.19;;;;;;;19.36;46.59;97775.31;;;;-51
2020/12/04 11:59:25;;;;;;;4.19;2.16;;;;;;;19.37;46.62;97771.47;;;;-51
2020/12/04 12:02:25;;;;;;;2.24;2.03;;;;;;;19.39;46.53;97765.48;;;;-51
2020/12/04 12:05:25;;;;;;;3.11;2.19;;;;;;;19.40;46.62;97761.85;;;;-50
2020/12/04 12:08:25;;;;;;;3.24;2.10;;;;;;;19.40;46.62;97750.97;;;;-51
2020/12/04 12:11:25;;;;;;;2.50;1.95;;;;;;;19.41;46.64;97743.06;;;;-52
2020/12/04 12:14:25;;;;;;;3.61;2.11;;;;;;;19.42;46.66;97737.16;;;;-51
2020/12/04 12:17:25;;;;;;;2.42;2.07;;;;;;;19.43;46.58;97729.34;;;;-60
2020/12/04 12:20:25;;;;;;;2.36;1.99;;;;;;;19.44;46.67;97726.46;;;;-61
2020/12/04 12:23:25;;;;;;;2.68;2.11;;;;;;;19.46;46.59;97725.09;;;;-60
2020/12/04 12:26:25;;;;;;;2.51;2.02;;;;;;;19.46;46.65;97716.31;;;;-60
2020/12/04 12:29:25;;;;;;;2.38;2.09;;;;;;;19.49;46.61;97708.81;;;;-62
2020/12/04 12:32:25;;;;;;;2.85;2.09;;;;;;;19.49;46.59;97706.95;;;;-60
2020/12/04 12:35:25;;;;;;;2.76;2.25;;;;;;;19.49;46.64;97708.74;;;;-60
2020/12/04 12:38:25;;;;;;;2.34;2.14;;;;;;;19.49;46.62;97698.09;;;;-60
2020/12/04 12:41:25;;;;;;;2.21;2.01;;;;;;;19.50;46.55;97693.68;;;;-60
2020/12/04 12:44:25;;;;;;;2.48;1.88;;;;;;;19.50;46.64;97705.38;;;;-61
2020/12/04 12:47:25;;;;;;;2.30;2.01;;;;;;;19.51;46.66;97719.22;;;;-60
2020/12/04 12:50:26;;;;;;;2.25;1.99;;;;;;;19.50;46.61;97718.27;;;;-61
2020/12/04 12:53:25;;;;;;;1.93;1.83;;;;;;;19.51;46.58;97723.13;;;;-61
2020/12/04 12:56:25;;;;;;;2.25;1.96;;;;;;;19.52;46.67;97731.67;;;;-54
2020/12/04 12:59:25;;;;;;;2.81;2.59;;;;;;;19.52;46.30;97734.14;;;;-51
2020/12/04 13:02:25;;;;;;;3.19;2.27;;;;;;;19.54;46.98;97730.69;;;;-48
2020/12/04 13:05:34;;;;;;;4.83;3.07;;;;;;;19.55;46.54;97733.53;;;;-51
2020/12/04 13:08:25;;;;;;;4.06;2.48;;;;;;;19.58;46.53;97748.77;;;;-51
2020/12/04 13:11:25;;;;;;;3.66;2.59;;;;;;;19.60;46.82;97747.48;;;;-55
2020/12/04 13:14:25;;;;;;;4.26;2.66;;;;;;;19.61;46.70;97741.84;;;;-53
2020/12/04 13:17:25;;;;;;;3.35;2.46;;;;;;;19.62;46.81;97738.05;;;;-51
2020/12/04 13:20:25;;;;;;;4.91;2.40;;;;;;;19.65;46.80;97737.53;;;;-57
2020/12/04 13:23:25;;;;;;;3.11;2.39;;;;;;;19.66;46.93;97731.88;;;;-52
2020/12/04 13:26:40;;;;;;;4.10;2.39;;;;;;;19.68;46.91;97738.86;;;;-53
2020/12/04 13:29:25;;;;;;;2.53;2.32;;;;;;;19.70;46.86;97735.72;;;;-52
2020/12/04 13:32:25;;;;;;;3.16;2.47;;;;;;;19.72;46.90;97739.25;;;;-52
2020/12/04 13:35:25;;;;;;;4.15;2.46;;;;;;;19.75;46.94;97740.52;;;;-52
2020/12/04 13:38:25;;;;;;;5.56;2.62;;;;;;;19.75;46.85;97742.06;;;;-59
2020/12/04 13:41:25;;;;;;;4.74;2.79;;;;;;;19.75;46.46;97737.84;;;;-59
2020/12/04 13:44:25;;;;;;;3.50;2.89;;;;;;;19.73;46.63;97741.86;;;;-58
2020/12/04 13:47:25;;;;;;;3.49;2.79;;;;;;;19.75;46.58;97735.64;;;;-59
2020/12/04 13:50:25;;;;;;;4.65;2.53;;;;;;;19.75;46.68;97741.09;;;;-58
2020/12/04 13:53:25;;;;;;;2.89;2.51;;;;;;;19.75;46.60;97748.38;;;;-59
2020/12/04 13:56:25;;;;;;;3.33;2.47;;;;;;;19.76;46.61;97744.16;;;;-59
2020/12/04 13:59:25;;;;;;;3.27;2.60;;;;;;;19.76;46.51;97745.43;;;;-59
2020/12/04 14:02:25;;;;;;;2.85;2.51;;;;;;;19.76;46.55;97751.12;;;;-59
2020/12/04 14:05:25;;;;;;;3.05;2.57;;;;;;;19.76;46.59;97764.93;;;;-55
2020/12/04 14:08:25;;;;;;;3.13;2.61;;;;;;;19.77;46.60;97767.89;;;;-55
2020/12/04 14:11:25;;;;;;;2.55;2.35;;;;;;;19.77;46.52;97768.13;;;;-55
2020/12/04 14:14:25;;;;;;;3.32;2.65;;;;;;;19.78;46.47;97765.85;;;;-59
2020/12/04 14:17:25;;;;;;;3.47;2.50;;;;;;;19.78;46.51;97768.94;;;;-58
2020/12/04 14:20:25;;;;;;;3.02;2.47;;;;;;;19.78;46.41;97776.46;;;;-54
2020/12/04 14:23:25;;;;;;;3.19;2.47;;;;;;;19.79;46.40;97775.06;;;;-58
2020/12/04 14:26:25;;;;;;;2.69;2.35;;;;;;;19.79;46.41;97777.41;;;;-54
2020/12/04 14:29:25;;;;;;;3.36;2.67;;;;;;;19.79;46.36;97780.23;;;;-54
2020/12/04 14:32:25;;;;;;;2.67;2.47;;;;;;;19.80;46.41;97792.08;;;;-54
2020/12/04 14:35:25;;;;;;;2.61;2.41;;;;;;;19.81;46.46;97790.36;;;;-55
2020/12/04 14:41:25;;;;;;;2.45;2.23;;;;;;;19.83;46.64;97782.87;;;;-54
2020/12/04 14:44:25;;;;;;;3.68;2.51;;;;;;;19.82;46.66;97777.05;;;;-55
2020/12/04 14:47:25;;;;;;;2.53;2.33;;;;;;;19.84;46.59;97778.69;;;;-55
2020/12/04 14:50:25;;;;;;;2.78;2.41;;;;;;;19.85;46.67;97775.58;;;;-59
2020/12/04 14:53:25;;;;;;;4.13;2.35;;;;;;;19.85;46.71;97780.27;;;;-59
2020/12/04 14:56:25;;;;;;;3.21;2.58;;;;;;;19.86;46.76;97778.03;;;;-51
2020/12/04 14:59:25;;;;;;;7.73;3.33;;;;;;;19.88;46.62;97778.30;;;;-53
2020/12/04 15:02:25;;;;;;;5.64;3.75;;;;;;;19.86;46.39;97783.00;;;;-50
2020/12/04 15:05:26;;;;;;;6.83;3.65;;;;;;;19.89;46.52;97781.66;;;;-47
2020/12/04 15:08:25;;;;;;;11.79;3.27;;;;;;;19.92;46.86;97786.77;;;;-49
2020/12/04 15:11:25;;;;;;;4.77;2.89;;;;;;;19.95;47.11;97792.22;;;;-50
2020/12/04 15:14:25;;;;;;;7.27;2.94;;;;;;;19.98;47.17;97799.27;;;;-48
2020/12/04 15:17:25;;;;;;;6.27;2.83;;;;;;;19.99;47.19;97801.01;;;;-47
2020/12/04 15:20:25;;;;;;;4.71;2.60;;;;;;;20.01;47.16;97795.36;;;;-57
2020/12/04 15:23:25;;;;;;;3.46;2.82;;;;;;;20.01;47.21;97798.52;;;;-57
2020/12/04 15:26:25;;;;;;;4.92;2.89;;;;;;;20.01;47.11;97799.01;;;;-57
2020/12/04 15:29:25;;;;;;;4.19;2.81;;;;;;;20.02;47.17;97791.66;;;;-58
2020/12/04 15:32:25;;;;;;;5.05;2.81;;;;;;;20.00;47.30;97788.37;;;;-59
2020/12/04 15:35:25;;;;;;;5.03;2.85;;;;;;;20.00;47.21;97788.95;;;;-56
2020/12/04 15:38:25;;;;;;;4.03;2.75;;;;;;;19.99;47.39;97789.00;;;;-52
2020/12/04 15:41:25;;;;;;;4.51;2.83;;;;;;;19.97;47.41;97811.09;;;;-54
2020/12/04 15:44:25;;;;;;;3.28;2.75;;;;;;;19.97;47.41;97821.11;;;;-53
2020/12/04 15:47:25;;;;;;;7.88;2.71;;;;;;;19.96;47.48;97820.09;;;;-60
2020/12/04 15:50:25;;;;;;;6.32;3.00;;;;;;;19.94;47.54;97818.94;;;;-57
2020/12/04 15:53:25;;;;;;;5.01;2.92;;;;;;;19.93;47.29;97824.16;;;;-57
2020/12/04 15:56:25;;;;;;;3.55;2.86;;;;;;;19.90;47.04;97814.86;;;;-61
2020/12/04 15:59:25;;;;;;;4.45;3.05;;;;;;;19.88;47.00;97811.27;;;;-62
2020/12/04 16:02:25;;;;;;;4.13;2.75;;;;;;;19.85;46.97;97802.76;;;;-56
2020/12/04 16:05:25;;;;;;;3.18;2.85;;;;;;;19.83;46.97;97816.42;;;;-56
2020/12/04 16:08:25;;;;;;;3.22;2.80;;;;;;;19.79;46.80;97813.30;;;;-51
2020/12/04 16:11:25;;;;;;;4.87;3.04;;;;;;;19.78;46.83;97815.16;;;;-52
2020/12/04 16:14:25;;;;;;;4.89;2.96;;;;;;;19.76;46.83;97815.95;;;;-54
2020/12/04 16:17:25;;;;;;;4.76;3.00;;;;;;;19.74;46.88;97832.70;;;;-52
2020/12/04 16:20:25;;;;;;;3.65;2.92;;;;;;;19.73;46.82;97834.42;;;;-52
2020/12/04 16:23:25;;;;;;;3.97;3.11;;;;;;;19.69;46.79;97835.84;;;;-52
2020/12/04 16:26:25;;;;;;;3.63;3.01;;;;;;;19.68;46.78;97842.80;;;;-52
2020/12/04 16:29:25;;;;;;;3.05;2.72;;;;;;;19.65;46.83;97846.88;;;;-52
2020/12/04 16:32:25;;;;;;;5.27;2.81;;;;;;;19.61;46.80;97846.38;;;;-53
2020/12/04 16:35:25;;;;;;;4.06;3.04;;;;;;;19.59;46.81;97842.88;;;;-53
2020/12/04 16:38:25;;;;;;;4.68;2.85;;;;;;;19.57;46.77;97833.03;;;;-63
2020/12/04 16:41:25;;;;;;;4.39;2.68;;;;;;;19.54;46.77;97834.69;;;;-63
2020/12/04 16:44:25;;;;;;;3.55;2.87;;;;;;;19.53;46.83;97834.09;;;;-62
2020/12/04 16:47:25;;;;;;;3.38;2.86;;;;;;;19.50;46.81;97834.73;;;;-61
2020/12/04 16:50:25;;;;;;;4.48;2.72;;;;;;;19.47;46.78;97831.03;;;;-61
2020/12/04 16:53:25;;;;;;;4.77;3.02;;;;;;;19.45;46.84;97820.13;;;;-58
2020/12/04 16:56:25;;;;;;;4.71;2.95;;;;;;;19.44;47.00;97816.70;;;;-59
2020/12/04 16:59:25;;;;;;;5.37;2.99;;;;;;;19.41;46.91;97809.91;;;;-59
2020/12/04 17:02:25;;;;;;;4.21;3.17;;;;;;;19.38;47.01;97816.98;;;;-58